createdAt,value
2018-06-15T00:00:16.359Z,8.53
2018-06-15T00:02:48.777Z,9.37
2018-06-15T00:05:17.251Z,8.80
2018-06-15T00:07:45.906Z,9.37
2018-06-15T00:10:14.381Z,8.47
2018-06-15T00:12:42.850Z,9.33
2018-06-15T00:15:11.718Z,9.10
2018-06-15T00:17:40.168Z,9.03
2018-06-15T00:20:08.677Z,9.60
2018-06-15T00:22:37.129Z,8.30
2018-06-15T00:25:05.595Z,9.70
2018-06-15T00:27:34.042Z,8.63
2018-06-15T00:30:02.577Z,9.90
2018-06-15T00:32:31.059Z,10.27
2018-06-15T00:34:59.771Z,9.93
2018-06-15T00:37:28.340Z,10.17
2018-06-15T00:39:56.785Z,8.60
2018-06-15T00:42:25.241Z,10.20
2018-06-15T00:44:53.738Z,9.50
2018-06-15T00:47:21.870Z,9.60
2018-06-15T00:49:50.350Z,9.20
2018-06-15T00:52:18.780Z,9.43
2018-06-15T00:54:46.905Z,10.10
2018-06-15T00:57:26.814Z,10.00
2018-06-15T00:59:55.293Z,10.03
2018-06-15T01:02:23.756Z,10.77
2018-06-15T01:04:52.225Z,9.37
2018-06-15T01:07:20.698Z,9.60
2018-06-15T01:09:49.176Z,10.20
2018-06-15T01:12:17.657Z,9.53
2018-06-15T01:14:46.146Z,9.60
2018-06-15T01:17:14.646Z,8.90
2018-06-15T01:19:43.227Z,9.07
2018-06-15T01:22:11.691Z,8.93
2018-06-15T01:24:40.197Z,9.87
2018-06-15T01:27:08.650Z,9.70
2018-06-15T01:29:37.130Z,9.50
2018-06-15T01:32:05.669Z,10.20
2018-06-15T01:34:34.189Z,10.40
2018-06-15T01:37:02.878Z,10.37
2018-06-15T01:39:31.362Z,9.80
2018-06-15T01:41:59.834Z,9.70
2018-06-15T01:44:28.375Z,9.60
2018-06-15T01:46:56.542Z,9.40
2018-06-15T01:49:25.046Z,9.17
2018-06-15T01:51:53.531Z,8.80
2018-06-15T01:54:22.046Z,9.00
2018-06-15T01:56:50.519Z,9.20
2018-06-15T01:59:19.061Z,9.20
2018-06-15T02:01:47.237Z,9.10
2018-06-15T02:04:15.741Z,8.70
2018-06-15T02:06:44.231Z,9.00
2018-06-15T02:09:12.698Z,9.50
2018-06-15T02:11:41.150Z,9.10
2018-06-15T02:14:09.615Z,9.07
2018-06-15T02:16:38.303Z,8.63
2018-06-15T02:19:06.758Z,8.73
2018-06-15T02:21:35.193Z,9.40
2018-06-15T02:24:03.332Z,11.13
2018-06-15T02:26:31.823Z,10.43
2018-06-15T02:29:00.333Z,10.40
2018-06-15T02:31:28.859Z,10.07
2018-06-15T02:33:57.373Z,11.47
2018-06-15T02:36:25.829Z,9.70
2018-06-15T02:38:54.278Z,10.70
2018-06-15T02:41:22.954Z,11.53
2018-06-15T02:43:51.101Z,11.00
2018-06-15T02:46:19.549Z,11.43
2018-06-15T02:48:48.000Z,9.90
2018-06-15T02:51:16.464Z,10.90
2018-06-15T02:53:44.904Z,10.83
2018-06-15T02:56:13.416Z,11.17
2018-06-15T02:58:41.898Z,11.40
2018-06-15T03:01:10.342Z,9.97
2018-06-15T03:03:38.817Z,9.83
2018-06-15T03:06:07.554Z,10.10
2018-06-15T03:08:36.017Z,9.10
2018-06-15T03:11:04.498Z,10.37
2018-06-15T03:13:33.199Z,10.20
2018-06-15T03:16:01.640Z,9.37
2018-06-15T03:18:30.135Z,10.03
2018-06-15T03:20:58.612Z,8.70
2018-06-15T03:23:27.087Z,10.03
2018-06-15T03:25:55.767Z,10.23
2018-06-15T03:28:24.195Z,8.93
2018-06-15T03:30:52.682Z,8.97
2018-06-15T03:33:21.124Z,8.63
2018-06-15T03:35:50.013Z,8.97
2018-06-15T03:38:18.465Z,8.47
2018-06-15T03:40:46.957Z,8.10
2018-06-15T03:43:15.383Z,7.13
2018-06-15T03:45:43.879Z,7.93
2018-06-15T03:48:12.326Z,8.47
2018-06-15T03:50:40.829Z,7.87
2018-06-15T03:53:09.292Z,7.97
2018-06-15T03:55:37.785Z,8.10
2018-06-15T03:58:07.072Z,8.27
2018-06-15T04:00:35.540Z,8.50
2018-06-15T04:03:04.018Z,8.87
2018-06-15T04:05:32.715Z,7.83
2018-06-15T04:08:01.377Z,8.03
2018-06-15T04:10:29.861Z,8.90
2018-06-15T04:12:58.383Z,8.80
2018-06-15T04:15:26.525Z,8.30
2018-06-15T04:18:00.606Z,8.40
2018-06-15T04:20:29.103Z,9.87
2018-06-15T04:22:57.223Z,8.37
2018-06-15T04:25:25.999Z,8.87
2018-06-15T04:27:54.533Z,8.90
2018-06-15T04:30:22.982Z,9.73
2018-06-15T04:32:51.510Z,9.57
2018-06-15T04:35:19.637Z,8.50
2018-06-15T04:37:48.358Z,8.37
2018-06-15T04:40:16.843Z,8.03
2018-06-15T04:42:45.729Z,8.33
2018-06-15T04:45:14.530Z,7.97
2018-06-15T04:47:43.022Z,9.57
2018-06-15T04:50:11.490Z,8.60
2018-06-15T04:52:39.961Z,7.13
2018-06-15T04:55:08.153Z,8.13
2018-06-15T04:57:36.616Z,8.80
2018-06-15T05:00:04.981Z,8.17
2018-06-15T05:02:33.697Z,8.30
2018-06-15T05:05:02.196Z,8.53
2018-06-15T05:07:30.344Z,9.03
2018-06-15T05:09:58.772Z,8.73
2018-06-15T05:12:27.274Z,8.30
2018-06-15T05:14:55.783Z,8.33
2018-06-15T05:17:24.238Z,9.03
2018-06-15T05:19:52.741Z,8.10
2018-06-15T05:22:21.205Z,8.97
2018-06-15T05:24:50.313Z,9.47
2018-06-15T05:27:19.042Z,9.20
2018-06-15T05:29:47.489Z,9.10
2018-06-15T05:32:15.982Z,9.80
2018-06-15T05:34:44.677Z,10.37
2018-06-15T05:37:13.171Z,9.23
2018-06-15T05:39:41.660Z,10.07
2018-06-15T05:42:10.154Z,10.07
2018-06-15T05:44:38.653Z,9.83
2018-06-15T05:47:07.150Z,10.53
2018-06-15T05:49:35.633Z,10.10
2018-06-15T05:52:04.172Z,11.00
2018-06-15T05:54:32.341Z,11.50
2018-06-15T05:57:00.493Z,10.87
2018-06-15T05:59:29.010Z,11.53
2018-06-15T06:01:57.515Z,12.10
2018-06-15T06:04:26.031Z,11.90
2018-06-15T06:06:54.560Z,9.93
2018-06-15T06:09:23.034Z,10.40
2018-06-15T06:11:51.593Z,10.67
2018-06-15T06:14:20.095Z,10.17
2018-06-15T06:16:48.603Z,9.60
2018-06-15T06:19:17.322Z,11.03
2018-06-15T06:21:45.843Z,11.27
2018-06-15T06:24:14.885Z,10.57
2018-06-15T06:26:44.006Z,11.10
2018-06-15T06:29:12.588Z,11.30
2018-06-15T06:31:41.101Z,11.10
2018-06-15T06:34:10.091Z,12.20
2018-06-15T06:36:38.931Z,11.60
2018-06-15T06:39:09.933Z,11.20
2018-06-15T06:41:38.612Z,12.50
2018-06-15T06:44:07.510Z,12.37
2018-06-15T06:46:36.000Z,12.87
2018-06-15T06:49:04.302Z,11.80
2018-06-15T06:51:32.835Z,11.20
2018-06-15T06:54:01.332Z,11.13
2018-06-15T06:56:29.818Z,11.40
2018-06-15T06:58:58.124Z,11.47
2018-06-15T07:01:26.582Z,12.33
2018-06-15T07:03:55.140Z,11.97
2018-06-15T07:06:24.659Z,12.53
2018-06-15T07:08:53.452Z,12.83
2018-06-15T07:11:21.999Z,11.53
2018-06-15T07:13:50.475Z,11.47
2018-06-15T07:16:19.010Z,11.23
2018-06-15T07:18:47.491Z,10.87
2018-06-15T07:21:15.961Z,10.37
2018-06-15T07:23:44.450Z,10.23
2018-06-15T07:26:13.201Z,11.90
2018-06-15T07:28:41.701Z,11.37
2018-06-15T07:31:10.189Z,11.10
2018-06-15T07:33:38.687Z,11.70
2018-06-15T07:36:07.186Z,12.20
2018-06-15T07:38:35.353Z,11.47
2018-06-15T07:41:03.914Z,11.20
2018-06-15T07:43:32.539Z,9.90
2018-06-15T07:46:01.122Z,9.77
2018-06-15T07:48:29.590Z,8.83
2018-06-15T07:50:58.121Z,8.80
2018-06-15T07:53:26.610Z,9.97
2018-06-15T07:55:55.113Z,10.57
2018-06-15T07:58:23.606Z,10.03
2018-06-15T08:00:52.097Z,10.30
2018-06-15T08:03:20.638Z,10.63
2018-06-15T08:05:49.201Z,10.20
2018-06-15T08:08:17.695Z,9.00
2018-06-15T08:10:46.190Z,9.80
2018-06-15T08:13:14.713Z,11.50
2018-06-15T08:15:43.163Z,9.00
2018-06-15T08:18:11.917Z,10.33
2018-06-15T08:20:40.433Z,10.13
2018-06-15T08:23:08.949Z,9.53
2018-06-15T08:25:37.424Z,11.50
2018-06-15T08:28:05.914Z,9.60
2018-06-15T08:30:34.104Z,11.07
2018-06-15T08:33:02.893Z,11.03
2018-06-15T08:35:31.423Z,10.60
2018-06-15T08:37:59.925Z,10.13
2018-06-15T08:40:28.448Z,10.80
2018-06-15T08:42:56.936Z,10.13
2018-06-15T08:45:25.438Z,10.03
2018-06-15T08:47:53.955Z,11.13
2018-06-15T08:50:22.475Z,9.90
2018-06-15T08:52:50.747Z,10.17
2018-06-15T08:55:19.207Z,9.50
2018-06-15T08:57:47.751Z,8.13
2018-06-15T09:00:16.324Z,8.70
2018-06-15T09:02:44.859Z,8.83
2018-06-15T09:05:13.346Z,8.50
2018-06-15T09:07:41.923Z,8.20
2018-06-15T09:10:10.583Z,7.90
2018-06-15T09:12:39.068Z,7.93
2018-06-15T09:15:07.546Z,7.73
2018-06-15T09:17:36.046Z,9.57
2018-06-15T09:20:05.179Z,9.40
2018-06-15T09:22:34.715Z,8.50
2018-06-15T09:25:03.209Z,8.80
2018-06-15T09:27:31.690Z,8.50
2018-06-15T09:30:00.136Z,8.77
2018-06-15T09:32:28.401Z,7.77
2018-06-15T09:34:57.483Z,8.20
2018-06-15T09:37:27.465Z,7.80
2018-06-15T09:39:56.208Z,8.93
2018-06-15T09:42:25.485Z,8.23
2018-06-15T09:44:54.018Z,8.70
2018-06-15T09:47:22.581Z,8.90
2018-06-15T09:49:51.106Z,10.97
2018-06-15T09:52:19.710Z,12.17
2018-06-15T09:54:48.393Z,11.30
2018-06-15T09:57:16.971Z,12.30
2018-06-15T09:59:45.997Z,13.50
2018-06-15T10:02:14.562Z,10.30
2018-06-15T10:04:43.105Z,10.50
2018-06-15T10:07:11.569Z,12.37
2018-06-15T10:09:40.997Z,10.07
2018-06-15T10:12:09.594Z,11.13
2018-06-15T10:14:39.001Z,10.00
2018-06-15T10:17:07.492Z,10.47
2018-06-15T10:19:36.004Z,9.83
2018-06-15T10:22:04.550Z,10.63
2018-06-15T10:24:39.078Z,11.33
2018-06-15T10:27:07.606Z,9.70
2018-06-15T10:29:36.111Z,11.20
2018-06-15T10:32:04.590Z,10.17
2018-06-15T10:34:33.109Z,9.80
2018-06-15T10:37:01.634Z,11.03
2018-06-15T10:39:30.198Z,10.87
2018-06-15T10:41:58.746Z,10.30
2018-06-15T10:44:27.315Z,10.37
2018-06-15T10:46:55.846Z,10.20
2018-06-15T10:49:24.963Z,11.53
2018-06-15T10:51:53.470Z,10.00
2018-06-15T10:54:21.991Z,10.30
2018-06-15T10:56:50.505Z,10.63
2018-06-15T10:59:19.234Z,11.10
2018-06-15T11:01:47.729Z,10.13
2018-06-15T11:04:16.297Z,10.80
2018-06-15T11:06:44.796Z,11.57
2018-06-15T11:09:14.595Z,10.20
2018-06-15T11:11:43.149Z,10.93
2018-06-15T11:14:12.504Z,11.50
2018-06-15T11:16:41.047Z,11.77
2018-06-15T11:19:09.216Z,10.97
2018-06-15T11:21:37.781Z,10.17
2018-06-15T11:24:06.616Z,9.30
2018-06-15T11:26:35.141Z,10.00
2018-06-15T11:29:03.729Z,10.53
2018-06-15T11:31:32.257Z,10.90
2018-06-15T11:34:00.971Z,9.93
2018-06-15T11:36:29.453Z,11.00
2018-06-15T11:38:57.932Z,10.53
2018-06-15T11:41:26.433Z,10.17
2018-06-15T11:43:54.913Z,10.07
2018-06-15T11:46:23.401Z,11.73
2018-06-15T11:48:51.897Z,9.10
2018-06-15T11:51:20.375Z,9.17
2018-06-15T11:53:48.909Z,10.37
2018-06-15T11:56:18.111Z,8.73
2018-06-15T11:58:47.310Z,9.67
2018-06-15T12:01:16.594Z,9.03
2018-06-15T12:03:44.805Z,10.13
2018-06-15T12:06:13.321Z,10.50
2018-06-15T12:08:41.778Z,10.30
2018-06-15T12:11:10.259Z,10.10
2018-06-15T12:13:39.195Z,9.33
2018-06-15T12:16:07.702Z,9.93
2018-06-15T12:18:36.191Z,10.03
2018-06-15T12:21:04.881Z,10.07
2018-06-15T12:23:33.425Z,11.43
2018-06-15T12:26:01.922Z,10.80
2018-06-15T12:28:30.103Z,11.10
2018-06-15T12:30:58.541Z,12.00
2018-06-15T12:33:27.272Z,10.10
2018-06-15T12:35:55.411Z,11.10
2018-06-15T12:38:23.911Z,11.33
2018-06-15T12:40:52.633Z,10.80
2018-06-15T12:43:21.064Z,10.50
2018-06-15T12:45:49.638Z,9.80
2018-06-15T12:48:18.014Z,9.70
2018-06-15T12:50:46.491Z,10.00
2018-06-15T12:53:14.955Z,9.50
2018-06-15T12:55:43.389Z,10.83
2018-06-15T12:58:11.877Z,10.50
2018-06-15T13:00:40.373Z,10.53
2018-06-15T13:03:08.544Z,8.90
2018-06-15T13:05:36.668Z,8.70
2018-06-15T13:08:05.420Z,10.33
2018-06-15T13:10:33.572Z,8.97
2018-06-15T13:13:02.047Z,9.30
2018-06-15T13:15:30.509Z,9.10
2018-06-15T13:17:58.999Z,9.90
2018-06-15T13:20:27.498Z,8.73
2018-06-15T13:22:55.993Z,9.30
2018-06-15T13:25:24.161Z,9.23
2018-06-15T13:27:52.305Z,7.97
2018-06-15T13:30:20.801Z,7.30
2018-06-15T13:32:49.494Z,7.87
2018-06-15T13:35:18.074Z,9.70
2018-06-15T13:37:46.773Z,8.77
2018-06-15T13:40:15.243Z,8.70
2018-06-15T13:42:43.725Z,9.40
2018-06-15T13:45:12.178Z,9.10
2018-06-15T13:47:40.678Z,8.90
2018-06-15T13:50:09.665Z,8.40
2018-06-15T13:52:38.152Z,8.20
2018-06-15T13:55:06.633Z,8.60
2018-06-15T13:57:35.222Z,8.20
2018-06-15T14:00:03.931Z,10.00
2018-06-15T14:02:32.109Z,8.27
2018-06-15T14:05:00.625Z,8.13
2018-06-15T14:07:29.123Z,8.70
2018-06-15T14:09:57.629Z,9.53
2018-06-15T14:12:26.158Z,10.00
2018-06-15T14:14:54.699Z,8.83
2018-06-15T14:17:23.637Z,10.20
2018-06-15T14:19:52.094Z,9.83
2018-06-15T14:22:20.570Z,8.60
2018-06-15T14:24:49.050Z,8.10
2018-06-15T14:27:17.523Z,8.90
2018-06-15T14:29:46.029Z,8.47
2018-06-15T14:32:14.654Z,8.93
2018-06-15T14:34:43.146Z,8.47
2018-06-15T14:37:12.794Z,8.07
2018-06-15T14:39:41.338Z,8.43
2018-06-15T14:42:09.846Z,7.70
2018-06-15T14:44:39.292Z,7.57
2018-06-15T14:47:07.775Z,8.70
2018-06-15T14:49:36.275Z,9.37
2018-06-15T14:52:04.807Z,7.80
2018-06-15T14:54:33.571Z,8.00
2018-06-15T14:57:02.087Z,8.53
2018-06-15T14:59:30.596Z,7.60
2018-06-15T15:02:03.123Z,8.10
2018-06-15T15:04:31.649Z,8.60
2018-06-15T15:06:59.817Z,8.33
2018-06-15T15:09:28.529Z,8.37
2018-06-15T15:11:57.930Z,8.97
2018-06-15T15:14:26.400Z,8.63
2018-06-15T15:16:57.291Z,7.57
2018-06-15T15:19:25.749Z,8.27
2018-06-15T15:21:54.244Z,7.40
2018-06-15T15:24:22.711Z,8.33
2018-06-15T15:26:51.218Z,8.30
2018-06-15T15:29:19.681Z,8.37
2018-06-15T15:31:48.126Z,8.87
2018-06-15T15:34:16.273Z,8.90
2018-06-15T15:36:44.735Z,8.70
2018-06-15T15:39:13.189Z,8.17
2018-06-15T15:41:41.659Z,8.53
2018-06-15T15:44:10.183Z,8.67
2018-06-15T15:46:38.691Z,8.33
2018-06-15T15:49:07.202Z,7.90
2018-06-15T15:51:35.727Z,8.73
2018-06-15T15:54:04.261Z,9.10
2018-06-15T15:56:32.827Z,8.93
2018-06-15T15:59:01.779Z,8.20
2018-06-15T16:01:30.291Z,9.47
2018-06-15T16:03:58.761Z,8.17
2018-06-15T16:06:27.316Z,8.33
2018-06-15T16:08:55.796Z,7.27
2018-06-15T16:11:24.283Z,9.30
2018-06-15T16:13:52.790Z,7.83
2018-06-15T16:16:21.258Z,8.10
2018-06-15T16:18:49.760Z,8.00
2018-06-15T16:21:18.278Z,6.97
2018-06-15T16:23:46.492Z,7.63
2018-06-15T16:26:14.975Z,7.20
2018-06-15T16:28:43.571Z,8.07
2018-06-15T16:31:12.497Z,7.60
2018-06-15T16:33:41.009Z,8.50
2018-06-15T16:36:09.496Z,7.60
2018-06-15T16:38:37.997Z,7.70
2018-06-15T16:41:06.586Z,7.90
2018-06-15T16:43:35.077Z,8.70
2018-06-15T16:46:03.627Z,8.30
2018-06-15T16:48:32.129Z,9.23
2018-06-15T16:51:00.590Z,8.30
2018-06-15T16:53:29.122Z,9.50
2018-06-15T16:55:57.613Z,8.90
2018-06-15T16:58:26.242Z,8.53
2018-06-15T17:00:54.734Z,9.50
2018-06-15T17:03:23.994Z,8.80
2018-06-15T17:05:52.485Z,8.97
2018-06-15T17:08:22.774Z,7.97
2018-06-15T17:10:51.548Z,8.00
2018-06-15T17:13:20.246Z,9.00
2018-06-15T17:15:48.698Z,8.07
2018-06-15T17:18:17.163Z,8.73
2018-06-15T17:20:45.638Z,9.50
2018-06-15T17:23:14.877Z,8.87
2018-06-15T17:25:43.353Z,8.43
2018-06-15T17:28:12.035Z,7.97
2018-06-15T17:30:40.513Z,9.30
2018-06-15T17:33:08.983Z,8.97
2018-06-15T17:35:37.138Z,9.87
2018-06-15T17:38:05.640Z,8.67
2018-06-15T17:40:34.148Z,9.33
2018-06-15T17:43:02.621Z,9.83
2018-06-15T17:45:31.137Z,9.00
2018-06-15T17:47:59.749Z,8.50
2018-06-15T17:50:28.271Z,9.23
2018-06-15T17:52:56.751Z,9.47
2018-06-15T17:55:40.856Z,9.10
2018-06-15T17:58:09.399Z,9.13
2018-06-15T18:00:37.986Z,9.80
2018-06-15T18:03:06.680Z,10.70
2018-06-15T18:05:35.240Z,10.17
2018-06-15T18:08:03.743Z,9.67
2018-06-15T18:10:32.543Z,9.97
2018-06-15T18:13:01.003Z,9.80
2018-06-15T18:15:29.486Z,9.80
2018-06-15T18:17:58.109Z,9.80
2018-06-15T18:20:26.693Z,8.40
2018-06-15T18:22:55.137Z,9.63
2018-06-15T18:25:23.639Z,9.53
2018-06-15T18:27:52.187Z,9.70
2018-06-15T18:30:20.982Z,9.80
2018-06-15T18:32:49.458Z,9.67
2018-06-15T18:35:18.150Z,9.40
2018-06-15T18:37:46.688Z,9.80
2018-06-15T18:40:15.191Z,9.23
2018-06-15T18:42:43.985Z,9.77
2018-06-15T18:45:12.510Z,9.33
2018-06-15T18:47:40.992Z,9.23
2018-06-15T18:50:09.500Z,10.00
2018-06-15T18:52:38.369Z,8.70
2018-06-15T18:55:06.943Z,8.53
2018-06-15T18:57:35.612Z,9.33
2018-06-15T19:00:05.137Z,10.40
2018-06-15T19:02:33.691Z,8.83
2018-06-15T19:05:01.873Z,8.53
2018-06-15T19:07:31.105Z,9.60
2018-06-15T19:09:59.919Z,9.03
2018-06-15T19:12:28.711Z,9.10
2018-06-15T19:14:57.268Z,9.67
2018-06-15T19:17:25.922Z,10.77
2018-06-15T19:19:54.717Z,11.00
2018-06-15T19:22:23.223Z,9.80
2018-06-15T19:24:51.839Z,10.23
2018-06-15T19:27:20.346Z,9.20
2018-06-15T19:29:48.860Z,10.30
2018-06-15T19:32:17.377Z,10.63
2018-06-15T19:34:45.971Z,8.90
2018-06-15T19:37:14.432Z,10.03
2018-06-15T19:39:43.038Z,8.97
2018-06-15T19:42:11.543Z,9.23
2018-06-15T19:44:40.014Z,9.80
2018-06-15T19:47:08.543Z,9.50
2018-06-15T19:49:37.059Z,9.10
2018-06-15T19:52:05.771Z,10.43
2018-06-15T19:54:33.986Z,10.40
2018-06-15T19:57:02.484Z,9.50
2018-06-15T19:59:30.983Z,10.60
2018-06-15T20:01:59.709Z,10.00
2018-06-15T20:04:28.237Z,9.53
2018-06-15T20:06:56.762Z,10.43
2018-06-15T20:09:25.262Z,9.00
2018-06-15T20:11:53.796Z,10.63
2018-06-15T20:14:22.915Z,9.50
2018-06-15T20:16:51.441Z,10.27
2018-06-15T20:19:19.946Z,9.87
2018-06-15T20:21:48.869Z,9.70
2018-06-15T20:24:17.371Z,10.73
2018-06-15T20:26:45.901Z,10.00
2018-06-15T20:29:14.574Z,10.00
2018-06-15T20:31:43.086Z,10.23
2018-06-15T20:34:11.547Z,9.70
2018-06-15T20:36:40.047Z,9.80
2018-06-15T20:39:09.331Z,10.17
2018-06-15T20:41:37.812Z,10.43
2018-06-15T20:44:06.522Z,10.83
2018-06-15T20:46:35.470Z,11.03
2018-06-15T20:49:04.017Z,11.00
2018-06-15T20:51:32.681Z,9.90
2018-06-15T20:54:01.181Z,10.50
2018-06-15T20:56:29.719Z,9.70
2018-06-15T20:58:58.333Z,10.20
2018-06-15T21:01:27.026Z,11.30
2018-06-15T21:03:55.577Z,10.00
2018-06-15T21:06:24.165Z,11.87
2018-06-15T21:08:52.637Z,10.63
2018-06-15T21:11:21.149Z,9.73
2018-06-15T21:13:50.252Z,10.57
2018-06-15T21:16:18.743Z,11.53
2018-06-15T21:18:47.501Z,11.70
2018-06-15T21:21:15.995Z,10.93
2018-06-15T21:23:44.604Z,10.73
2018-06-15T21:26:13.122Z,10.87
2018-06-15T21:28:41.835Z,10.47
2018-06-15T21:31:10.583Z,10.73
2018-06-15T21:33:39.131Z,10.87
2018-06-15T21:36:07.678Z,12.20
2018-06-15T21:38:36.161Z,10.30
2018-06-15T21:41:04.639Z,10.87
2018-06-15T21:43:33.195Z,11.00
2018-06-15T21:46:01.718Z,11.13
2018-06-15T21:48:30.187Z,10.40
2018-06-15T21:50:58.682Z,12.43
2018-06-15T21:53:27.319Z,11.27
2018-06-15T21:55:55.762Z,11.47
2018-06-15T21:58:24.278Z,11.00
2018-06-15T22:00:52.798Z,10.50
2018-06-15T22:03:21.006Z,11.43
2018-06-15T22:05:49.473Z,12.73
2018-06-15T22:08:18.214Z,12.17
2018-06-15T22:10:46.690Z,11.73
2018-06-15T22:13:15.141Z,11.40
2018-06-15T22:15:43.867Z,10.93
2018-06-15T22:18:12.319Z,11.90
2018-06-15T22:20:40.770Z,12.27
2018-06-15T22:23:09.206Z,11.37
2018-06-15T22:25:37.679Z,11.57
2018-06-15T22:28:06.169Z,12.63
2018-06-15T22:30:34.641Z,12.80
2018-06-15T22:33:03.099Z,12.30
2018-06-15T22:35:31.561Z,11.10
2018-06-15T22:37:59.690Z,11.83
2018-06-15T22:40:28.117Z,11.70
2018-06-15T22:42:56.264Z,11.70
2018-06-15T22:45:24.718Z,12.30
2018-06-15T22:47:54.598Z,11.57
2018-06-15T22:50:23.282Z,12.73
2018-06-15T22:52:51.771Z,11.60
2018-06-15T22:55:20.197Z,12.67
2018-06-15T22:57:48.686Z,13.60
2018-06-15T23:00:18.225Z,14.20
2018-06-15T23:02:46.821Z,12.50
2018-06-15T23:05:15.349Z,12.10
2018-06-15T23:07:43.859Z,14.73
2018-06-15T23:10:12.308Z,13.20
2018-06-15T23:12:40.777Z,12.70
2018-06-15T23:15:09.314Z,13.63
2018-06-15T23:17:37.830Z,12.83
2018-06-15T23:20:06.655Z,12.80
2018-06-15T23:22:35.195Z,12.87
2018-06-15T23:25:03.783Z,13.10
2018-06-15T23:27:32.288Z,12.27
2018-06-15T23:30:01.867Z,13.67
2018-06-15T23:32:30.381Z,13.20
2018-06-15T23:34:58.857Z,13.00
2018-06-15T23:37:27.440Z,12.73
2018-06-15T23:39:57.086Z,12.23
2018-06-15T23:42:25.566Z,12.87
2018-06-15T23:44:54.071Z,11.70
2018-06-15T23:47:22.574Z,11.33
2018-06-15T23:49:51.168Z,11.07
2018-06-15T23:52:19.697Z,10.80
2018-06-15T23:54:48.178Z,11.53
2018-06-15T23:57:16.661Z,10.47
2018-06-15T23:59:45.170Z,10.43
